sensor_id;sensor_type;location;lat;lon;timestamp;temperature;humidity
70726;DHT22;58304;53.104;6.022;2022-10-31T00:01:38;11.90;99.90
70726;DHT22;58304;53.104;6.022;2022-10-31T00:04:04;11.90;99.90
70726;DHT22;58304;53.104;6.022;2022-10-31T00:06:30;11.90;99.90
70726;DHT22;58304;53.104;6.022;2022-10-31T00:09:00;11.80;99.90
70726;DHT22;58304;53.104;6.022;2022-10-31T00:11:27;11.80;99.90
70726;DHT22;58304;53.104;6.022;2022-10-31T00:13:53;11.80;99.90
70726;DHT22;58304;53.104;6.022;2022-10-31T00:16:21;11.80;99.90
70726;DHT22;58304;53.104;6.022;2022-10-31T00:18:55;11.70;99.90
70726;DHT22;58304;53.104;6.022;2022-10-31T00:21:21;11.70;99.90
70726;DHT22;58304;53.104;6.022;2022-10-31T00:23:47;11.70;99.90
70726;DHT22;58304;53.104;6.022;2022-10-31T00:26:13;11.70;99.90
70726;DHT22;58304;53.104;6.022;2022-10-31T00:28:39;11.70;99.90
70726;DHT22;58304;53.104;6.022;2022-10-31T00:31:07;11.70;99.90
70726;DHT22;58304;53.104;6.022;2022-10-31T00:33:34;11.60;99.90
70726;DHT22;58304;53.104;6.022;2022-10-31T00:36:02;11.60;99.90
70726;DHT22;58304;53.104;6.022;2022-10-31T00:38:28;11.60;99.90
70726;DHT22;58304;53.104;6.022;2022-10-31T00:40:53;11.50;99.90
70726;DHT22;58304;53.104;6.022;2022-10-31T00:43:19;11.50;99.90
70726;DHT22;58304;53.104;6.022;2022-10-31T00:45:45;11.50;99.90
70726;DHT22;58304;53.104;6.022;2022-10-31T00:48:10;11.50;99.90
70726;DHT22;58304;53.104;6.022;2022-10-31T00:50:37;11.50;99.90
70726;DHT22;58304;53.104;6.022;2022-10-31T00:53:02;11.50;99.90
70726;DHT22;58304;53.104;6.022;2022-10-31T00:55:28;11.50;99.90
70726;DHT22;58304;53.104;6.022;2022-10-31T00:57:54;11.40;99.90
70726;DHT22;58304;53.104;6.022;2022-10-31T01:00:20;11.40;99.90
70726;DHT22;58304;53.104;6.022;2022-10-31T01:02:46;11.40;99.90
70726;DHT22;58304;53.104;6.022;2022-10-31T01:05:12;11.40;99.90
70726;DHT22;58304;53.104;6.022;2022-10-31T01:07:39;11.40;99.90
70726;DHT22;58304;53.104;6.022;2022-10-31T01:10:05;11.40;99.90
70726;DHT22;58304;53.104;6.022;2022-10-31T01:12:41;11.40;99.90
70726;DHT22;58304;53.104;6.022;2022-10-31T01:15:09;11.40;99.90
70726;DHT22;58304;53.104;6.022;2022-10-31T01:17:35;11.40;99.90
70726;DHT22;58304;53.104;6.022;2022-10-31T01:20:01;11.30;99.90
70726;DHT22;58304;53.104;6.022;2022-10-31T01:22:26;11.30;99.90
70726;DHT22;58304;53.104;6.022;2022-10-31T01:24:52;11.20;99.90
70726;DHT22;58304;53.104;6.022;2022-10-31T01:27:17;11.20;99.90
70726;DHT22;58304;53.104;6.022;2022-10-31T01:29:43;11.20;99.90
70726;DHT22;58304;53.104;6.022;2022-10-31T01:32:08;11.10;99.90
70726;DHT22;58304;53.104;6.022;2022-10-31T01:34:34;11.20;99.90
70726;DHT22;58304;53.104;6.022;2022-10-31T01:37:00;11.10;99.90
70726;DHT22;58304;53.104;6.022;2022-10-31T01:39:25;11.10;99.90
70726;DHT22;58304;53.104;6.022;2022-10-31T01:41:52;11.10;99.90
70726;DHT22;58304;53.104;6.022;2022-10-31T01:47:07;11.10;99.90
70726;DHT22;58304;53.104;6.022;2022-10-31T01:49:40;11.10;99.90
70726;DHT22;58304;53.104;6.022;2022-10-31T01:52:11;11.10;99.90
70726;DHT22;58304;53.104;6.022;2022-10-31T01:54:44;11.10;99.90
70726;DHT22;58304;53.104;6.022;2022-10-31T01:57:12;11.10;99.90
70726;DHT22;58304;53.104;6.022;2022-10-31T01:59:43;11.10;99.90
70726;DHT22;58304;53.104;6.022;2022-10-31T02:02:12;11.00;99.90
70726;DHT22;58304;53.104;6.022;2022-10-31T02:04:38;11.10;99.90
70726;DHT22;58304;53.104;6.022;2022-10-31T02:07:11;11.00;99.90
70726;DHT22;58304;53.104;6.022;2022-10-31T02:09:37;11.00;99.90
70726;DHT22;58304;53.104;6.022;2022-10-31T02:12:05;11.00;99.90
70726;DHT22;58304;53.104;6.022;2022-10-31T02:14:31;11.00;99.90
70726;DHT22;58304;53.104;6.022;2022-10-31T02:16:58;11.00;99.90
70726;DHT22;58304;53.104;6.022;2022-10-31T02:19:52;11.00;99.90
70726;DHT22;58304;53.104;6.022;2022-10-31T02:28:18;10.90;99.90
70726;DHT22;58304;53.104;6.022;2022-10-31T02:31:00;10.90;99.90
70726;DHT22;58304;53.104;6.022;2022-10-31T02:33:51;10.90;99.90
70726;DHT22;58304;53.104;6.022;2022-10-31T02:42:42;10.80;99.90
70726;DHT22;58304;53.104;6.022;2022-10-31T02:48:01;10.80;99.90
70726;DHT22;58304;53.104;6.022;2022-10-31T02:50:32;10.70;99.90
70726;DHT22;58304;53.104;6.022;2022-10-31T02:52:58;10.70;99.90
70726;DHT22;58304;53.104;6.022;2022-10-31T02:58:05;10.70;99.90
70726;DHT22;58304;53.104;6.022;2022-10-31T03:01:22;10.70;99.90
70726;DHT22;58304;53.104;6.022;2022-10-31T03:03:30;10.60;99.90
70726;DHT22;58304;53.104;6.022;2022-10-31T03:06:18;10.60;99.90
70726;DHT22;58304;53.104;6.022;2022-10-31T03:09:07;10.60;99.90
70726;DHT22;58304;53.104;6.022;2022-10-31T03:11:46;10.50;99.90
70726;DHT22;58304;53.104;6.022;2022-10-31T03:14:22;10.50;99.90
70726;DHT22;58304;53.104;6.022;2022-10-31T03:16:51;10.50;99.90
70726;DHT22;58304;53.104;6.022;2022-10-31T03:19:19;10.50;99.90
70726;DHT22;58304;53.104;6.022;2022-10-31T03:22:00;10.40;99.90
70726;DHT22;58304;53.104;6.022;2022-10-31T03:24:31;10.40;99.90
70726;DHT22;58304;53.104;6.022;2022-10-31T03:26:59;10.40;99.90
70726;DHT22;58304;53.104;6.022;2022-10-31T03:29:28;10.40;99.90
70726;DHT22;58304;53.104;6.022;2022-10-31T03:32:02;10.40;99.90
70726;DHT22;58304;53.104;6.022;2022-10-31T03:34:31;10.30;99.90
70726;DHT22;58304;53.104;6.022;2022-10-31T03:37:00;10.30;99.90
70726;DHT22;58304;53.104;6.022;2022-10-31T03:39:27;10.20;99.90
70726;DHT22;58304;53.104;6.022;2022-10-31T03:41:56;10.20;99.90
70726;DHT22;58304;53.104;6.022;2022-10-31T03:44:24;10.10;99.90
70726;DHT22;58304;53.104;6.022;2022-10-31T03:46:51;10.20;99.90
70726;DHT22;58304;53.104;6.022;2022-10-31T03:49:17;10.20;99.90
70726;DHT22;58304;53.104;6.022;2022-10-31T03:51:56;10.20;99.90
70726;DHT22;58304;53.104;6.022;2022-10-31T03:57:33;10.20;99.90
70726;DHT22;58304;53.104;6.022;2022-10-31T04:02:32;10.20;99.90
70726;DHT22;58304;53.104;6.022;2022-10-31T04:04:59;10.20;99.90
70726;DHT22;58304;53.104;6.022;2022-10-31T04:07:28;10.10;99.90
70726;DHT22;58304;53.104;6.022;2022-10-31T04:09:56;10.10;99.90
70726;DHT22;58304;53.104;6.022;2022-10-31T04:12:24;10.10;99.90
70726;DHT22;58304;53.104;6.022;2022-10-31T04:14:52;10.00;99.90
70726;DHT22;58304;53.104;6.022;2022-10-31T04:17:20;10.00;99.90
70726;DHT22;58304;53.104;6.022;2022-10-31T04:19:47;10.00;99.90
70726;DHT22;58304;53.104;6.022;2022-10-31T04:22:12;10.00;99.90
70726;DHT22;58304;53.104;6.022;2022-10-31T04:24:39;10.00;99.90
70726;DHT22;58304;53.104;6.022;2022-10-31T04:27:05;10.00;99.90
70726;DHT22;58304;53.104;6.022;2022-10-31T04:29:31;9.90;99.90
70726;DHT22;58304;53.104;6.022;2022-10-31T04:31:56;10.00;99.90
70726;DHT22;58304;53.104;6.022;2022-10-31T04:34:22;10.00;99.90
70726;DHT22;58304;53.104;6.022;2022-10-31T04:36:48;10.00;99.90
70726;DHT22;58304;53.104;6.022;2022-10-31T04:39:13;10.00;99.90
70726;DHT22;58304;53.104;6.022;2022-10-31T04:41:39;10.00;99.90
70726;DHT22;58304;53.104;6.022;2022-10-31T04:44:06;10.00;99.90
70726;DHT22;58304;53.104;6.022;2022-10-31T04:46:32;9.90;99.90
70726;DHT22;58304;53.104;6.022;2022-10-31T04:48:58;9.90;99.90
70726;DHT22;58304;53.104;6.022;2022-10-31T04:51:23;9.90;99.90
70726;DHT22;58304;53.104;6.022;2022-10-31T04:53:49;9.90;99.90
70726;DHT22;58304;53.104;6.022;2022-10-31T04:56:15;9.80;99.90
70726;DHT22;58304;53.104;6.022;2022-10-31T04:58:40;9.90;99.90
70726;DHT22;58304;53.104;6.022;2022-10-31T05:01:06;9.90;99.90
70726;DHT22;58304;53.104;6.022;2022-10-31T05:03:31;9.90;99.90
70726;DHT22;58304;53.104;6.022;2022-10-31T05:05:57;9.90;99.90
70726;DHT22;58304;53.104;6.022;2022-10-31T05:08:22;9.80;99.90
70726;DHT22;58304;53.104;6.022;2022-10-31T05:10:48;9.80;99.90
70726;DHT22;58304;53.104;6.022;2022-10-31T05:13:13;9.80;99.90
70726;DHT22;58304;53.104;6.022;2022-10-31T05:15:40;9.80;99.90
70726;DHT22;58304;53.104;6.022;2022-10-31T05:18:06;9.80;99.90
70726;DHT22;58304;53.104;6.022;2022-10-31T05:20:32;9.80;99.90
70726;DHT22;58304;53.104;6.022;2022-10-31T05:22:58;9.80;99.90
70726;DHT22;58304;53.104;6.022;2022-10-31T05:25:25;9.70;99.90
70726;DHT22;58304;53.104;6.022;2022-10-31T05:27:52;9.70;99.90
70726;DHT22;58304;53.104;6.022;2022-10-31T05:30:21;9.80;99.90
70726;DHT22;58304;53.104;6.022;2022-10-31T05:32:49;9.80;99.90
70726;DHT22;58304;53.104;6.022;2022-10-31T05:35:23;9.90;99.90
70726;DHT22;58304;53.104;6.022;2022-10-31T05:37:49;9.80;99.90
70726;DHT22;58304;53.104;6.022;2022-10-31T05:40:16;9.70;99.90
70726;DHT22;58304;53.104;6.022;2022-10-31T05:42:42;9.80;99.90
70726;DHT22;58304;53.104;6.022;2022-10-31T05:45:11;9.70;99.90
70726;DHT22;58304;53.104;6.022;2022-10-31T05:47:37;9.70;99.90
70726;DHT22;58304;53.104;6.022;2022-10-31T05:50:03;9.70;99.90
70726;DHT22;58304;53.104;6.022;2022-10-31T05:52:29;9.70;99.90
70726;DHT22;58304;53.104;6.022;2022-10-31T05:54:55;9.70;99.90
70726;DHT22;58304;53.104;6.022;2022-10-31T05:57:20;9.70;99.90
70726;DHT22;58304;53.104;6.022;2022-10-31T05:59:46;9.60;99.90
70726;DHT22;58304;53.104;6.022;2022-10-31T06:02:11;9.60;99.90
70726;DHT22;58304;53.104;6.022;2022-10-31T06:04:37;9.60;99.90
70726;DHT22;58304;53.104;6.022;2022-10-31T06:07:02;9.60;99.90
70726;DHT22;58304;53.104;6.022;2022-10-31T06:09:28;9.60;99.90
70726;DHT22;58304;53.104;6.022;2022-10-31T06:11:53;9.60;99.90
70726;DHT22;58304;53.104;6.022;2022-10-31T06:14:19;9.60;99.90
70726;DHT22;58304;53.104;6.022;2022-10-31T06:16:45;9.60;99.90
70726;DHT22;58304;53.104;6.022;2022-10-31T06:19:10;9.50;99.90
70726;DHT22;58304;53.104;6.022;2022-10-31T06:21:36;9.60;99.90
70726;DHT22;58304;53.104;6.022;2022-10-31T06:24:02;9.50;99.90
70726;DHT22;58304;53.104;6.022;2022-10-31T06:26:27;9.50;99.90
70726;DHT22;58304;53.104;6.022;2022-10-31T06:28:53;9.60;99.90
70726;DHT22;58304;53.104;6.022;2022-10-31T06:31:18;9.60;99.90
70726;DHT22;58304;53.104;6.022;2022-10-31T06:33:44;9.60;99.90
70726;DHT22;58304;53.104;6.022;2022-10-31T06:36:09;9.60;99.90
70726;DHT22;58304;53.104;6.022;2022-10-31T06:38:35;9.60;99.90
70726;DHT22;58304;53.104;6.022;2022-10-31T06:41:05;9.60;99.90
70726;DHT22;58304;53.104;6.022;2022-10-31T06:43:31;9.60;99.90
70726;DHT22;58304;53.104;6.022;2022-10-31T06:45:56;9.60;99.90
70726;DHT22;58304;53.104;6.022;2022-10-31T06:48:22;9.70;99.90
70726;DHT22;58304;53.104;6.022;2022-10-31T06:50:48;9.70;99.90
70726;DHT22;58304;53.104;6.022;2022-10-31T06:53:14;9.70;99.90
70726;DHT22;58304;53.104;6.022;2022-10-31T06:55:40;9.80;99.90
70726;DHT22;58304;53.104;6.022;2022-10-31T06:58:06;9.80;99.90
70726;DHT22;58304;53.104;6.022;2022-10-31T07:00:33;9.90;99.90
70726;DHT22;58304;53.104;6.022;2022-10-31T07:03:02;9.90;99.90
70726;DHT22;58304;53.104;6.022;2022-10-31T07:05:28;10.00;99.90
70726;DHT22;58304;53.104;6.022;2022-10-31T07:07:56;10.00;99.90
70726;DHT22;58304;53.104;6.022;2022-10-31T07:10:22;10.00;99.90
70726;DHT22;58304;53.104;6.022;2022-10-31T07:12:48;10.00;99.90
70726;DHT22;58304;53.104;6.022;2022-10-31T07:15:18;10.10;99.90
70726;DHT22;58304;53.104;6.022;2022-10-31T07:17:44;10.10;99.90
70726;DHT22;58304;53.104;6.022;2022-10-31T07:20:10;10.20;99.90
70726;DHT22;58304;53.104;6.022;2022-10-31T07:22:36;10.40;99.90
70726;DHT22;58304;53.104;6.022;2022-10-31T07:25:02;10.80;99.90
70726;DHT22;58304;53.104;6.022;2022-10-31T07:27:28;11.20;99.90
70726;DHT22;58304;53.104;6.022;2022-10-31T07:29:53;11.50;99.90
70726;DHT22;58304;53.104;6.022;2022-10-31T07:32:19;11.70;99.90
70726;DHT22;58304;53.104;6.022;2022-10-31T07:34:44;11.90;99.90
70726;DHT22;58304;53.104;6.022;2022-10-31T07:37:10;12.50;99.90
70726;DHT22;58304;53.104;6.022;2022-10-31T07:39:35;12.80;99.90
70726;DHT22;58304;53.104;6.022;2022-10-31T07:42:01;13.80;99.90
70726;DHT22;58304;53.104;6.022;2022-10-31T07:44:26;15.00;99.90
70726;DHT22;58304;53.104;6.022;2022-10-31T07:46:52;15.70;99.90
70726;DHT22;58304;53.104;6.022;2022-10-31T07:49:17;16.20;99.90
70726;DHT22;58304;53.104;6.022;2022-10-31T07:51:43;17.00;99.90
70726;DHT22;58304;53.104;6.022;2022-10-31T07:54:09;17.70;99.90
70726;DHT22;58304;53.104;6.022;2022-10-31T07:56:34;18.00;99.90
70726;DHT22;58304;53.104;6.022;2022-10-31T07:59:00;18.40;99.90
70726;DHT22;58304;53.104;6.022;2022-10-31T08:01:25;18.70;99.90
70726;DHT22;58304;53.104;6.022;2022-10-31T08:03:51;18.80;99.90
70726;DHT22;58304;53.104;6.022;2022-10-31T08:06:16;18.10;99.90
70726;DHT22;58304;53.104;6.022;2022-10-31T08:08:42;17.30;99.90
70726;DHT22;58304;53.104;6.022;2022-10-31T08:11:07;17.20;99.90
70726;DHT22;58304;53.104;6.022;2022-10-31T08:13:33;16.90;99.90
70726;DHT22;58304;53.104;6.022;2022-10-31T08:15:59;16.30;99.90
70726;DHT22;58304;53.104;6.022;2022-10-31T08:18:29;16.50;99.90
70726;DHT22;58304;53.104;6.022;2022-10-31T08:20:55;16.50;99.90
70726;DHT22;58304;53.104;6.022;2022-10-31T08:23:20;16.70;99.90
70726;DHT22;58304;53.104;6.022;2022-10-31T08:25:46;16.60;99.90
70726;DHT22;58304;53.104;6.022;2022-10-31T08:28:13;16.60;99.90
70726;DHT22;58304;53.104;6.022;2022-10-31T08:30:40;17.00;99.90
70726;DHT22;58304;53.104;6.022;2022-10-31T08:35:36;18.00;99.90
70726;DHT22;58304;53.104;6.022;2022-10-31T08:38:02;17.90;99.90
70726;DHT22;58304;53.104;6.022;2022-10-31T08:40:29;18.00;99.90
70726;DHT22;58304;53.104;6.022;2022-10-31T08:43:15;18.00;99.90
70726;DHT22;58304;53.104;6.022;2022-10-31T08:45:41;18.00;99.90
70726;DHT22;58304;53.104;6.022;2022-10-31T08:48:11;17.80;99.90
70726;DHT22;58304;53.104;6.022;2022-10-31T08:50:37;17.50;99.90
70726;DHT22;58304;53.104;6.022;2022-10-31T08:53:11;17.20;99.90
70726;DHT22;58304;53.104;6.022;2022-10-31T08:55:38;17.30;99.90
70726;DHT22;58304;53.104;6.022;2022-10-31T08:58:06;17.00;99.90
70726;DHT22;58304;53.104;6.022;2022-10-31T09:00:33;17.30;99.90
70726;DHT22;58304;53.104;6.022;2022-10-31T09:03:02;17.50;99.90
70726;DHT22;58304;53.104;6.022;2022-10-31T09:05:28;18.40;99.90
70726;DHT22;58304;53.104;6.022;2022-10-31T09:07:56;18.50;99.90
70726;DHT22;58304;53.104;6.022;2022-10-31T09:10:22;18.40;99.90
70726;DHT22;58304;53.104;6.022;2022-10-31T09:12:58;19.10;99.90
70726;DHT22;58304;53.104;6.022;2022-10-31T09:15:25;19.60;99.90
70726;DHT22;58304;53.104;6.022;2022-10-31T09:17:51;19.60;99.90
70726;DHT22;58304;53.104;6.022;2022-10-31T09:20:16;19.50;99.90
70726;DHT22;58304;53.104;6.022;2022-10-31T09:22:42;19.70;99.90
70726;DHT22;58304;53.104;6.022;2022-10-31T09:25:08;19.60;99.90
70726;DHT22;58304;53.104;6.022;2022-10-31T09:27:34;20.50;99.90
70726;DHT22;58304;53.104;6.022;2022-10-31T09:30:00;20.80;99.90
70726;DHT22;58304;53.104;6.022;2022-10-31T09:32:25;20.80;99.90
70726;DHT22;58304;53.104;6.022;2022-10-31T09:34:51;21.40;99.90
70726;DHT22;58304;53.104;6.022;2022-10-31T09:37:16;21.40;99.90
70726;DHT22;58304;53.104;6.022;2022-10-31T09:39:42;22.10;99.90
70726;DHT22;58304;53.104;6.022;2022-10-31T09:42:23;22.20;99.90
70726;DHT22;58304;53.104;6.022;2022-10-31T09:47:46;22.30;99.90
70726;DHT22;58304;53.104;6.022;2022-10-31T09:50:23;22.10;99.90
70726;DHT22;58304;53.104;6.022;2022-10-31T09:53:03;21.20;99.90
70726;DHT22;58304;53.104;6.022;2022-10-31T09:55:40;20.10;99.90
70726;DHT22;58304;53.104;6.022;2022-10-31T09:58:14;19.10;99.90
70726;DHT22;58304;53.104;6.022;2022-10-31T10:00:40;18.80;99.90
70726;DHT22;58304;53.104;6.022;2022-10-31T10:06:19;18.50;99.90
70726;DHT22;58304;53.104;6.022;2022-10-31T10:08:46;19.40;99.90
70726;DHT22;58304;53.104;6.022;2022-10-31T10:11:54;19.70;99.90
70726;DHT22;58304;53.104;6.022;2022-10-31T10:14:32;21.10;99.90
70726;DHT22;58304;53.104;6.022;2022-10-31T10:17:17;21.60;99.90
70726;DHT22;58304;53.104;6.022;2022-10-31T10:25:23;21.80;99.90
70726;DHT22;58304;53.104;6.022;2022-10-31T10:28:06;21.70;99.90
70726;DHT22;58304;53.104;6.022;2022-10-31T10:33:40;22.30;99.90
70726;DHT22;58304;53.104;6.022;2022-10-31T10:36:12;21.30;99.90
70726;DHT22;58304;53.104;6.022;2022-10-31T10:38:54;20.70;99.90
70726;DHT22;58304;53.104;6.022;2022-10-31T10:41:23;20.10;99.90
70726;DHT22;58304;53.104;6.022;2022-10-31T10:43:50;20.20;99.90
70726;DHT22;58304;53.104;6.022;2022-10-31T10:46:48;20.40;99.90
70726;DHT22;58304;53.104;6.022;2022-10-31T10:49:50;20.30;99.90
70726;DHT22;58304;53.104;6.022;2022-10-31T10:52:37;20.50;99.90
70726;DHT22;58304;53.104;6.022;2022-10-31T10:55:33;20.10;99.90
70726;DHT22;58304;53.104;6.022;2022-10-31T10:58:09;19.40;99.90
70726;DHT22;58304;53.104;6.022;2022-10-31T11:00:41;19.70;99.90
70726;DHT22;58304;53.104;6.022;2022-10-31T11:03:07;19.30;99.90
70726;DHT22;58304;53.104;6.022;2022-10-31T11:05:55;19.20;99.90
70726;DHT22;58304;53.104;6.022;2022-10-31T11:08:28;19.10;99.90
70726;DHT22;58304;53.104;6.022;2022-10-31T11:11:02;19.30;99.90
70726;DHT22;58304;53.104;6.022;2022-10-31T11:13:30;19.10;99.90
70726;DHT22;58304;53.104;6.022;2022-10-31T11:15:57;18.60;99.90
70726;DHT22;58304;53.104;6.022;2022-10-31T11:18:30;18.30;99.90
70726;DHT22;58304;53.104;6.022;2022-10-31T11:20:58;18.00;99.90
70726;DHT22;58304;53.104;6.022;2022-10-31T11:23:26;17.70;99.90
70726;DHT22;58304;53.104;6.022;2022-10-31T11:26:00;17.50;99.90
70726;DHT22;58304;53.104;6.022;2022-10-31T11:28:28;17.30;99.90
70726;DHT22;58304;53.104;6.022;2022-10-31T11:31:00;17.30;99.90
70726;DHT22;58304;53.104;6.022;2022-10-31T11:33:36;17.30;99.90
70726;DHT22;58304;53.104;6.022;2022-10-31T11:36:13;17.00;99.90
70726;DHT22;58304;53.104;6.022;2022-10-31T11:38:43;17.10;99.90
70726;DHT22;58304;53.104;6.022;2022-10-31T11:41:15;17.00;99.90
70726;DHT22;58304;53.104;6.022;2022-10-31T11:43:50;16.90;99.90
70726;DHT22;58304;53.104;6.022;2022-10-31T11:46:39;16.60;99.90
70726;DHT22;58304;53.104;6.022;2022-10-31T11:49:32;16.60;99.90
70726;DHT22;58304;53.104;6.022;2022-10-31T11:51:59;16.70;99.90
70726;DHT22;58304;53.104;6.022;2022-10-31T11:54:35;16.80;99.90
70726;DHT22;58304;53.104;6.022;2022-10-31T11:57:03;16.70;99.90
70726;DHT22;58304;53.104;6.022;2022-10-31T11:59:32;16.70;99.90
70726;DHT22;58304;53.104;6.022;2022-10-31T12:01:59;16.80;99.90
70726;DHT22;58304;53.104;6.022;2022-10-31T12:04:39;16.80;99.90
70726;DHT22;58304;53.104;6.022;2022-10-31T12:07:05;16.90;99.90
70726;DHT22;58304;53.104;6.022;2022-10-31T12:09:35;16.90;99.90
70726;DHT22;58304;53.104;6.022;2022-10-31T12:20:33;16.70;99.90
70726;DHT22;58304;53.104;6.022;2022-10-31T12:23:28;16.70;99.90
70726;DHT22;58304;53.104;6.022;2022-10-31T12:29:02;16.70;99.90
70726;DHT22;58304;53.104;6.022;2022-10-31T12:43:06;16.80;99.90
70726;DHT22;58304;53.104;6.022;2022-10-31T12:45:55;16.70;99.90
70726;DHT22;58304;53.104;6.022;2022-10-31T12:53:44;16.80;99.90
70726;DHT22;58304;53.104;6.022;2022-10-31T12:56:26;17.00;99.90
70726;DHT22;58304;53.104;6.022;2022-10-31T12:59:32;16.90;99.90
70726;DHT22;58304;53.104;6.022;2022-10-31T13:02:03;16.90;99.90
70726;DHT22;58304;53.104;6.022;2022-10-31T13:04:44;16.60;99.90
70726;DHT22;58304;53.104;6.022;2022-10-31T13:07:36;16.60;99.90
70726;DHT22;58304;53.104;6.022;2022-10-31T13:12:36;16.40;99.90
70726;DHT22;58304;53.104;6.022;2022-10-31T13:15:33;16.40;99.90
70726;DHT22;58304;53.104;6.022;2022-10-31T13:18:05;16.70;99.90
70726;DHT22;58304;53.104;6.022;2022-10-31T13:20:37;16.90;99.90
70726;DHT22;58304;53.104;6.022;2022-10-31T13:23:34;17.30;99.90
70726;DHT22;58304;53.104;6.022;2022-10-31T13:26:03;17.50;99.90
70726;DHT22;58304;53.104;6.022;2022-10-31T13:28:46;17.60;99.90
70726;DHT22;58304;53.104;6.022;2022-10-31T13:31:12;17.50;99.90
70726;DHT22;58304;53.104;6.022;2022-10-31T13:34:00;17.70;99.90
70726;DHT22;58304;53.104;6.022;2022-10-31T13:41:50;17.50;99.90
70726;DHT22;58304;53.104;6.022;2022-10-31T13:44:22;17.70;99.90
70726;DHT22;58304;53.104;6.022;2022-10-31T13:46:52;17.70;99.90
70726;DHT22;58304;53.104;6.022;2022-10-31T13:54:43;18.00;99.90
70726;DHT22;58304;53.104;6.022;2022-10-31T13:57:41;17.90;99.90
70726;DHT22;58304;53.104;6.022;2022-10-31T14:00:23;17.90;99.90
70726;DHT22;58304;53.104;6.022;2022-10-31T14:02:51;17.80;99.90
70726;DHT22;58304;53.104;6.022;2022-10-31T14:07:56;17.20;99.90
70726;DHT22;58304;53.104;6.022;2022-10-31T14:10:27;17.00;99.90
70726;DHT22;58304;53.104;6.022;2022-10-31T14:13:06;16.70;99.90
70726;DHT22;58304;53.104;6.022;2022-10-31T14:15:32;16.60;99.90
70726;DHT22;58304;53.104;6.022;2022-10-31T14:18:04;16.50;99.90
70726;DHT22;58304;53.104;6.022;2022-10-31T14:20:40;16.50;99.90
70726;DHT22;58304;53.104;6.022;2022-10-31T14:26:21;16.50;99.90
70726;DHT22;58304;53.104;6.022;2022-10-31T14:28:57;16.50;99.90
70726;DHT22;58304;53.104;6.022;2022-10-31T14:31:41;16.50;99.90
70726;DHT22;58304;53.104;6.022;2022-10-31T14:34:27;16.40;99.90
70726;DHT22;58304;53.104;6.022;2022-10-31T14:37:07;16.40;99.90
70726;DHT22;58304;53.104;6.022;2022-10-31T14:50:59;16.40;99.90
70726;DHT22;58304;53.104;6.022;2022-10-31T14:53:31;16.40;99.90
70726;DHT22;58304;53.104;6.022;2022-10-31T14:55:58;16.30;99.90
70726;DHT22;58304;53.104;6.022;2022-10-31T14:58:35;16.30;99.90
70726;DHT22;58304;53.104;6.022;2022-10-31T15:01:02;16.20;99.90
70726;DHT22;58304;53.104;6.022;2022-10-31T15:03:38;16.20;99.90
70726;DHT22;58304;53.104;6.022;2022-10-31T15:06:05;16.20;99.90
70726;DHT22;58304;53.104;6.022;2022-10-31T15:08:45;16.20;99.90
70726;DHT22;58304;53.104;6.022;2022-10-31T15:13:54;16.10;99.90
70726;DHT22;58304;53.104;6.022;2022-10-31T15:21:20;15.90;99.90
70726;DHT22;58304;53.104;6.022;2022-10-31T15:23:46;15.90;99.90
70726;DHT22;58304;53.104;6.022;2022-10-31T15:26:17;15.90;99.90
70726;DHT22;58304;53.104;6.022;2022-10-31T15:28:44;15.80;99.90
70726;DHT22;58304;53.104;6.022;2022-10-31T15:31:15;15.80;99.90
70726;DHT22;58304;53.104;6.022;2022-10-31T15:33:42;15.80;99.90
70726;DHT22;58304;53.104;6.022;2022-10-31T15:36:22;15.70;99.90
70726;DHT22;58304;53.104;6.022;2022-10-31T15:38:49;15.60;99.90
70726;DHT22;58304;53.104;6.022;2022-10-31T15:41:43;15.50;99.90
70726;DHT22;58304;53.104;6.022;2022-10-31T15:44:16;15.50;99.90
70726;DHT22;58304;53.104;6.022;2022-10-31T15:46:55;15.40;99.90
70726;DHT22;58304;53.104;6.022;2022-10-31T15:49:50;15.40;99.90
70726;DHT22;58304;53.104;6.022;2022-10-31T15:52:48;15.40;99.90
70726;DHT22;58304;53.104;6.022;2022-10-31T15:55:25;15.30;99.90
70726;DHT22;58304;53.104;6.022;2022-10-31T15:57:55;15.30;99.90
70726;DHT22;58304;53.104;6.022;2022-10-31T16:00:28;15.20;99.90
70726;DHT22;58304;53.104;6.022;2022-10-31T16:05:46;15.10;99.90
70726;DHT22;58304;53.104;6.022;2022-10-31T16:13:37;14.90;99.90
70726;DHT22;58304;53.104;6.022;2022-10-31T16:16:14;14.90;99.90
70726;DHT22;58304;53.104;6.022;2022-10-31T16:18:42;14.90;99.90
70726;DHT22;58304;53.104;6.022;2022-10-31T16:21:08;14.90;99.90
70726;DHT22;58304;53.104;6.022;2022-10-31T16:28:56;14.80;99.90
70726;DHT22;58304;53.104;6.022;2022-10-31T16:31:28;14.80;99.90
70726;DHT22;58304;53.104;6.022;2022-10-31T16:34:15;14.70;99.90
70726;DHT22;58304;53.104;6.022;2022-10-31T16:36:42;14.80;99.90
70726;DHT22;58304;53.104;6.022;2022-10-31T16:39:08;14.70;99.90
70726;DHT22;58304;53.104;6.022;2022-10-31T16:41:42;14.70;99.90
70726;DHT22;58304;53.104;6.022;2022-10-31T16:44:17;14.60;99.90
70726;DHT22;58304;53.104;6.022;2022-10-31T16:46:43;14.60;99.90
70726;DHT22;58304;53.104;6.022;2022-10-31T16:49:09;14.60;99.90
70726;DHT22;58304;53.104;6.022;2022-10-31T16:51:35;14.60;99.90
70726;DHT22;58304;53.104;6.022;2022-10-31T16:54:00;14.60;99.90
70726;DHT22;58304;53.104;6.022;2022-10-31T16:56:29;14.60;99.90
70726;DHT22;58304;53.104;6.022;2022-10-31T16:58:56;14.60;99.90
70726;DHT22;58304;53.104;6.022;2022-10-31T17:01:22;14.50;99.90
70726;DHT22;58304;53.104;6.022;2022-10-31T17:03:47;14.50;99.90
70726;DHT22;58304;53.104;6.022;2022-10-31T17:06:13;14.50;99.90
70726;DHT22;58304;53.104;6.022;2022-10-31T17:08:39;14.50;99.90
70726;DHT22;58304;53.104;6.022;2022-10-31T17:11:05;14.50;99.90
70726;DHT22;58304;53.104;6.022;2022-10-31T17:13:33;14.40;99.90
70726;DHT22;58304;53.104;6.022;2022-10-31T17:16:01;14.40;99.90
70726;DHT22;58304;53.104;6.022;2022-10-31T17:18:27;14.50;99.90
70726;DHT22;58304;53.104;6.022;2022-10-31T17:20:57;14.50;99.90
70726;DHT22;58304;53.104;6.022;2022-10-31T17:23:24;14.50;99.90
70726;DHT22;58304;53.104;6.022;2022-10-31T17:25:50;14.40;99.90
70726;DHT22;58304;53.104;6.022;2022-10-31T17:28:16;14.50;99.90
70726;DHT22;58304;53.104;6.022;2022-10-31T17:30:42;14.40;99.90
70726;DHT22;58304;53.104;6.022;2022-10-31T17:33:12;14.40;99.90
70726;DHT22;58304;53.104;6.022;2022-10-31T17:35:38;14.40;99.90
70726;DHT22;58304;53.104;6.022;2022-10-31T17:38:04;14.50;99.90
70726;DHT22;58304;53.104;6.022;2022-10-31T17:40:30;14.40;99.90
70726;DHT22;58304;53.104;6.022;2022-10-31T17:42:56;14.40;99.90
70726;DHT22;58304;53.104;6.022;2022-10-31T17:45:25;14.40;99.90
70726;DHT22;58304;53.104;6.022;2022-10-31T17:47:53;14.40;99.90
70726;DHT22;58304;53.104;6.022;2022-10-31T17:50:21;14.30;99.90
70726;DHT22;58304;53.104;6.022;2022-10-31T17:52:48;14.40;99.90
70726;DHT22;58304;53.104;6.022;2022-10-31T17:55:14;14.30;99.90